Time;durP1;ratioP1;P1;durP2;ratioP2;P2;SDS_P1;SDS_P2;PMS_P1;PMS_P2;Temp;Humidity;BMP_temperature;BMP_pressure;BME280_temperature;BME280_humidity;BME280_pressure;Samples;Min_cycle;Max_cycle;Signal;HPM_P1;HPM_P2
2023/01/07 01:29:19;;;;;;;;;;;;;;;10.75;66.01;97357.47;4242762;27;10406;-69
2023/01/07 01:31:22;;;;;;;;;;;;;;;11.00;65.76;97353.59;4246867;27;5657;-70
2023/01/07 01:33:25;;;;;;;;;;;;;;;11.19;65.12;97351.38;4248190;27;5613;-69
2023/01/07 01:35:27;;;;;;;;;;;;;;;11.38;64.88;97342.88;4238673;27;5829;-70
2023/01/07 01:37:30;;;;;;;;;;;;;;;11.58;64.63;97349.25;4242998;27;5594;-70
2023/01/07 01:39:33;;;;;;;;;;;;;;;11.72;64.43;97336.97;4246144;27;5664;-69
2023/01/07 01:41:36;;;;;;;;;;;;;;;11.81;63.90;97335.06;4241783;27;5700;-69
2023/01/07 01:43:43;;;;;;;;;;;;;;;11.89;63.83;97334.94;4240814;27;5668;-69
2023/01/07 01:45:47;;;;;;;;;;;;;;;11.98;63.42;97339.09;4238219;27;5742;-69
2023/01/07 01:47:54;;;;;;;;;;;;;;;12.02;63.47;97340.41;4248870;27;5732;-70
2023/01/07 01:50:05;;;;;;;;;;;;;;;12.05;63.07;97333.88;4245144;27;5597;-69
2023/01/07 01:52:14;;;;;;;;;;;;;;;12.07;63.14;97330.03;4241497;27;5598;-71
2023/01/07 01:54:19;;;;;;;;;;;;;;;12.10;62.82;97329.66;4239702;27;5602;-70
2023/01/07 01:56:27;;;;;;;;;;;;;;;12.13;62.69;97333.78;4244113;27;5641;-70
2023/01/07 01:58:34;;;;;;;;;;;;;;;12.15;62.68;97332.56;4243929;27;5669;-71
2023/01/07 02:00:37;;;;;;;;;;;;;;;12.19;62.80;97325.03;4251771;27;5829;-70
2023/01/07 02:02:46;;;;;;;;;;;;;;;12.20;62.57;97326.69;4239752;27;5575;-71
2023/01/07 02:04:49;;;;;;;;;;;;;;;12.20;62.54;97321.38;4255305;27;5685;-71
2023/01/07 02:06:58;;;;;;;;;;;;;;;12.25;62.35;97319.00;4231020;27;5680;-71
2023/01/07 02:09:00;;;;;;;;;;;;;;;12.27;62.38;97324.91;4233498;27;5661;-71
2023/01/07 02:11:27;;;;;;;;;;;;;;;12.28;61.88;97318.59;4237756;27;5688;-70
2023/01/07 02:13:42;;;;;;;;;;;;;;;12.27;61.73;97321.47;4247459;27;5605;-70
2023/01/07 02:15:54;;;;;;;;;;;;;;;12.21;61.76;97321.19;4236508;27;5657;-70
2023/01/07 02:18:13;;;;;;;;;;;;;;;12.19;61.83;97311.78;4237278;27;5676;-70
2023/01/07 02:20:28;;;;;;;;;;;;;;;12.20;61.95;97314.25;4237250;27;5707;-70
2023/01/07 02:22:50;;;;;;;;;;;;;;;12.17;61.84;97305.88;4242105;27;5696;-70
2023/01/07 02:25:20;;;;;;;;;;;;;;;12.15;61.90;97302.59;4243362;27;5668;-70
2023/01/07 02:27:33;;;;;;;;;;;;;;;12.17;61.84;97304.03;4241221;27;5708;-69
2023/01/07 02:30:03;;;;;;;;;;;;;;;12.14;61.61;97299.13;4237061;27;6314;-70
2023/01/07 02:32:43;;;;;;;;;;;;;;;12.11;61.67;97304.78;4219873;27;5869;-70
2023/01/07 02:34:55;;;;;;;;;;;;;;;12.10;61.54;97294.38;4219558;27;5677;-70
2023/01/07 02:37:05;;;;;;;;;;;;;;;12.08;61.29;97288.44;4224714;27;6415;-70
2023/01/07 02:39:22;;;;;;;;;;;;;;;12.03;61.63;97282.91;4221012;28;5685;-70
2023/01/07 02:41:34;;;;;;;;;;;;;;;12.03;61.77;97289.03;4236761;28;5079;-70
2023/01/07 02:43:48;;;;;;;;;;;;;;;12.09;61.30;97282.97;4224614;28;7683;-70
2023/01/07 02:45:55;;;;;;;;;;;;;;;12.12;61.32;97284.44;4230361;28;5075;-70
2023/01/07 02:48:00;;;;;;;;;;;;;;;12.13;61.19;97278.13;4228047;28;5820;-70
2023/01/07 02:50:05;;;;;;;;;;;;;;;12.13;60.93;97272.81;4236444;28;5650;-70
2023/01/07 02:52:20;;;;;;;;;;;;;;;12.09;60.92;97280.31;4232592;28;5888;-70
2023/01/07 02:54:27;;;;;;;;;;;;;;;12.06;61.09;97272.75;4242247;27;5642;-70
2023/01/07 02:56:43;;;;;;;;;;;;;;;12.07;61.08;97271.72;4227444;27;5657;-70
2023/01/07 02:59:10;;;;;;;;;;;;;;;12.08;60.85;97270.72;4234412;28;5602;-70
2023/01/07 03:01:37;;;;;;;;;;;;;;;12.09;60.86;97263.59;4219655;27;5621;-70
2023/01/07 03:03:55;;;;;;;;;;;;;;;12.10;60.70;97268.69;4245191;27;6354;-70
2023/01/07 03:06:11;;;;;;;;;;;;;;;12.13;60.80;97256.91;4247381;27;5693;-70
2023/01/07 03:08:34;;;;;;;;;;;;;;;12.15;60.83;97261.00;4228100;27;5587;-70
2023/01/07 03:10:41;;;;;;;;;;;;;;;12.15;60.33;97260.19;4246054;27;5684;-70
2023/01/07 03:12:46;;;;;;;;;;;;;;;12.15;60.40;97250.41;4240445;27;5645;-70
2023/01/07 03:14:51;;;;;;;;;;;;;;;12.20;60.47;97252.47;4253088;27;5094;-70
2023/01/07 03:16:57;;;;;;;;;;;;;;;12.20;60.34;97245.34;4232988;27;7671;-70
2023/01/07 03:19:05;;;;;;;;;;;;;;;12.22;60.33;97250.44;4220181;28;5669;-70
2023/01/07 03:21:13;;;;;;;;;;;;;;;12.24;60.23;97251.09;4218584;28;5680;-70
2023/01/07 03:23:20;;;;;;;;;;;;;;;12.26;60.30;97250.91;4236676;27;5687;-70
2023/01/07 03:25:26;;;;;;;;;;;;;;;12.27;60.22;97241.94;4252761;27;5681;-70
2023/01/07 03:27:34;;;;;;;;;;;;;;;12.28;60.16;97243.56;4231021;27;5696;-69
2023/01/07 03:29:37;;;;;;;;;;;;;;;12.27;60.06;97241.94;4226275;27;5783;-70
2023/01/07 03:31:48;;;;;;;;;;;;;;;12.27;60.11;97241.94;4231773;28;6298;-70
2023/01/07 03:33:55;;;;;;;;;;;;;;;12.27;59.89;97247.22;4231003;28;5620;-70
2023/01/07 03:36:00;;;;;;;;;;;;;;;12.26;59.50;97246.41;4232865;28;5606;-70
2023/01/07 03:38:04;;;;;;;;;;;;;;;12.22;59.46;97237.19;4235694;28;5602;-70
2023/01/07 03:40:10;;;;;;;;;;;;;;;12.18;59.58;97233.28;4220317;28;5616;-70
2023/01/07 03:44:35;;;;;;;;;;;;;;;12.08;59.70;97233.63;4225304;27;5669;-70
2023/01/07 03:46:38;;;;;;;;;;;;;;;12.09;59.90;97224.66;4246333;27;6654;-70
2023/01/07 03:48:41;;;;;;;;;;;;;;;12.13;59.78;97225.94;4226953;27;6521;-70
2023/01/07 03:50:43;;;;;;;;;;;;;;;12.15;59.59;97220.44;4237793;27;5830;-70
2023/01/07 03:52:49;;;;;;;;;;;;;;;12.17;59.37;97213.91;4227989;28;5624;-70
2023/01/07 03:54:52;;;;;;;;;;;;;;;12.14;59.68;97216.97;4224286;28;5700;-70
2023/01/07 03:56:55;;;;;;;;;;;;;;;12.14;59.48;97211.66;4233447;27;5605;-70
2023/01/07 03:58:57;;;;;;;;;;;;;;;12.14;59.50;97210.84;4228477;28;5633;-70
2023/01/07 04:01:00;;;;;;;;;;;;;;;12.14;59.39;97214.31;4218608;28;5625;-70
2023/01/07 04:03:03;;;;;;;;;;;;;;;12.16;59.74;97208.81;4221882;28;5719;-71
2023/01/07 04:05:08;;;;;;;;;;;;;;;12.17;59.35;97202.50;4250424;27;6455;-70
2023/01/07 04:07:12;;;;;;;;;;;;;;;12.18;59.58;97212.91;4235508;27;5649;-70
2023/01/07 04:09:17;;;;;;;;;;;;;;;12.20;59.45;97207.41;4232474;27;5638;-70
2023/01/07 04:11:20;;;;;;;;;;;;;;;12.20;59.48;97194.97;4205371;28;5620;-70
2023/01/07 04:13:23;;;;;;;;;;;;;;;12.21;59.63;97196.59;4229635;28;5677;-70
2023/01/07 04:15:26;;;;;;;;;;;;;;;12.24;59.37;97198.91;4225637;28;5689;-70
2023/01/07 04:17:29;;;;;;;;;;;;;;;12.23;59.58;97197.25;4223686;28;5871;-70
2023/01/07 04:19:32;;;;;;;;;;;;;;;12.25;59.48;97199.72;4231623;28;5828;-70
2023/01/07 04:21:34;;;;;;;;;;;;;;;12.29;59.27;97197.47;4221131;28;5913;-70
2023/01/07 04:23:37;;;;;;;;;;;;;;;12.29;59.15;97187.69;4222768;28;5747;-70
2023/01/07 04:25:41;;;;;;;;;;;;;;;12.29;59.47;97187.69;4227958;28;5593;-70
2023/01/07 04:27:44;;;;;;;;;;;;;;;12.31;59.05;97190.16;4228143;28;5602;-70
2023/01/07 04:29:47;;;;;;;;;;;;;;;12.31;59.16;97185.66;4235704;27;5839;-70
2023/01/07 04:31:50;;;;;;;;;;;;;;;12.32;59.21;97189.13;4251634;27;5578;-70
2023/01/07 04:33:52;;;;;;;;;;;;;;;12.33;59.11;97188.13;4242700;27;6551;-70
2023/01/07 04:35:56;;;;;;;;;;;;;;;12.32;58.92;97174.03;4229961;27;6501;-70
2023/01/07 04:37:59;;;;;;;;;;;;;;;12.32;58.91;97170.56;4234565;27;5195;-71
2023/01/07 04:40:02;;;;;;;;;;;;;;;12.31;59.05;97167.09;4219771;28;7730;-70
2023/01/07 04:42:06;;;;;;;;;;;;;;;12.28;59.12;97167.50;4221576;28;5598;-70
2023/01/07 04:44:09;;;;;;;;;;;;;;;12.28;59.16;97164.03;4231727;28;5595;-71
2023/01/07 04:46:11;;;;;;;;;;;;;;;12.30;59.29;97167.31;4226136;28;5704;-71
2023/01/07 04:48:15;;;;;;;;;;;;;;;12.30;59.19;97170.78;4222494;28;5848;-70
2023/01/07 04:50:18;;;;;;;;;;;;;;;12.32;58.94;97163.44;4225832;28;5931;-71
2023/01/07 04:52:21;;;;;;;;;;;;;;;12.34;58.95;97174.66;4225708;28;5590;-71
2023/01/07 04:54:23;;;;;;;;;;;;;;;12.35;59.04;97172.88;4226029;28;5602;-70
2023/01/07 04:56:26;;;;;;;;;;;;;;;12.35;58.84;97170.22;4219415;28;5709;-70
2023/01/07 04:58:30;;;;;;;;;;;;;;;12.36;58.79;97169.19;4231113;28;5601;-71
2023/01/07 05:00:33;;;;;;;;;;;;;;;12.36;58.98;97167.34;4217101;28;5657;-70
2023/01/07 05:02:36;;;;;;;;;;;;;;;12.36;58.91;97163.88;4217445;27;5878;-72
2023/01/07 05:04:38;;;;;;;;;;;;;;;12.37;58.71;97168.19;4234217;27;5676;-71
2023/01/07 05:06:41;;;;;;;;;;;;;;;12.40;58.57;97175.72;4225468;27;5590;-71
2023/01/07 05:08:44;;;;;;;;;;;;;;;12.42;58.72;97171.88;4242317;27;5760;-71
2023/01/07 05:10:49;;;;;;;;;;;;;;;12.41;58.35;97164.09;4217677;28;5854;-70
2023/01/07 05:12:51;;;;;;;;;;;;;;;12.35;58.51;97164.91;4234639;27;5101;-70
2023/01/07 05:14:55;;;;;;;;;;;;;;;12.31;58.61;97163.63;4221134;27;7720;-70
2023/01/07 05:16:58;;;;;;;;;;;;;;;12.31;58.68;97164.47;4230211;27;6280;-71
2023/01/07 05:19:01;;;;;;;;;;;;;;;12.27;58.99;97160.56;4250793;27;5595;-70
2023/01/07 05:21:04;;;;;;;;;;;;;;;12.26;58.72;97158.13;4242187;27;5676;-70
2023/01/07 05:23:06;;;;;;;;;;;;;;;12.24;58.70;97161.78;4233527;28;6623;-70
2023/01/07 05:25:10;;;;;;;;;;;;;;;12.17;58.96;97155.59;4224524;28;5663;-70
2023/01/07 05:27:12;;;;;;;;;;;;;;;12.12;59.01;97152.72;4226772;28;5728;-70
2023/01/07 05:29:15;;;;;;;;;;;;;;;12.13;59.06;97151.72;4233009;28;5590;-70
2023/01/07 05:31:20;;;;;;;;;;;;;;;12.15;59.13;97155.00;4240785;27;6276;-70
2023/01/07 05:33:23;;;;;;;;;;;;;;;12.18;59.23;97157.25;4237347;27;5586;-70
2023/01/07 05:35:25;;;;;;;;;;;;;;;12.22;58.96;97155.00;4230314;27;5665;-70
2023/01/07 05:37:28;;;;;;;;;;;;;;;12.24;58.97;97158.31;4223530;27;5601;-70
2023/01/07 05:39:31;;;;;;;;;;;;;;;12.24;58.85;97151.19;4242470;27;6618;-70
2023/01/07 05:41:34;;;;;;;;;;;;;;;12.24;59.00;97153.84;4240314;27;5107;-71
2023/01/07 05:43:36;;;;;;;;;;;;;;;12.23;58.69;97157.50;4224697;28;7684;-70
2023/01/07 05:45:39;;;;;;;;;;;;;;;12.13;58.67;97145.59;4229366;28;5613;-70
2023/01/07 05:47:44;;;;;;;;;;;;;;;12.10;59.14;97151.28;4228791;27;5610;-70
2023/01/07 05:49:46;;;;;;;;;;;;;;;12.15;59.13;97149.69;4233507;28;5602;-71
2023/01/07 05:51:49;;;;;;;;;;;;;;;12.16;58.60;97146.03;4237142;27;5085;-70
2023/01/07 05:53:52;;;;;;;;;;;;;;;12.14;58.66;97141.94;4233997;27;7774;-70
2023/01/07 05:55:58;;;;;;;;;;;;;;;12.14;58.62;97141.94;4218383;28;5625;-70
2023/01/07 05:58:01;;;;;;;;;;;;;;;12.15;58.89;97143.56;4217800;28;5624;-70
2023/01/07 06:00:05;;;;;;;;;;;;;;;12.10;58.96;97136.19;4239024;27;5579;-70
2023/01/07 06:02:08;;;;;;;;;;;;;;;12.11;58.89;97142.31;4231642;28;5606;-71
2023/01/07 06:04:12;;;;;;;;;;;;;;;12.02;58.98;97133.72;4233502;28;5590;-70
2023/01/07 06:06:14;;;;;;;;;;;;;;;11.96;58.82;97134.47;4227786;28;5610;-70
2023/01/07 06:08:17;;;;;;;;;;;;;;;11.98;58.99;97134.28;4237013;27;5658;-70
2023/01/07 06:10:20;;;;;;;;;;;;;;;12.02;58.75;97136.34;4237375;27;5589;-70
2023/01/07 06:12:23;;;;;;;;;;;;;;;12.06;58.57;97140.25;4234689;28;5810;-70
2023/01/07 06:14:26;;;;;;;;;;;;;;;12.09;58.60;97139.84;4234280;28;5885;-70
2023/01/07 06:16:28;;;;;;;;;;;;;;;12.11;58.41;97131.69;4207619;28;6219;-70
2023/01/07 06:18:31;;;;;;;;;;;;;;;12.05;58.71;97133.31;4231186;28;5689;-70
2023/01/07 06:20:35;;;;;;;;;;;;;;;12.00;58.46;97130.41;4227415;28;5606;-70
2023/01/07 06:22:38;;;;;;;;;;;;;;;11.98;58.77;97131.63;4239472;27;5587;-70
2023/01/07 06:24:41;;;;;;;;;;;;;;;11.99;58.56;97139.38;4235821;27;5610;-70
2023/01/07 06:26:44;;;;;;;;;;;;;;;11.94;58.53;97133.84;4234935;28;5613;-71
2023/01/07 06:28:46;;;;;;;;;;;;;;;11.91;58.69;97126.28;4231225;28;5609;-71
2023/01/07 06:30:49;;;;;;;;;;;;;;;11.91;58.64;97132.41;4233326;28;5665;-71
2023/01/07 06:32:52;;;;;;;;;;;;;;;11.91;58.39;97143.00;4228328;28;5710;-70
2023/01/07 06:34:55;;;;;;;;;;;;;;;11.95;58.50;97130.19;4236355;28;5598;-70
2023/01/07 06:36:59;;;;;;;;;;;;;;;11.95;58.58;97132.84;4237137;28;5772;-70
2023/01/07 06:39:01;;;;;;;;;;;;;;;11.89;58.63;97128.28;4234313;28;5778;-70
2023/01/07 06:41:04;;;;;;;;;;;;;;;11.91;58.51;97137.72;4228384;28;6316;-70
2023/01/07 06:43:07;;;;;;;;;;;;;;;11.94;58.43;97137.31;4235082;28;5696;-70
2023/01/07 06:45:10;;;;;;;;;;;;;;;11.97;58.29;97141.41;4208821;28;5613;-70
2023/01/07 06:47:13;;;;;;;;;;;;;;;12.02;58.56;97149.59;4235408;28;5630;-69
2023/01/07 06:49:17;;;;;;;;;;;;;;;12.02;57.94;97148.78;4228337;28;5791;-69
2023/01/07 06:51:20;;;;;;;;;;;;;;;11.94;58.12;97147.09;4234616;28;5669;-69
2023/01/07 06:53:24;;;;;;;;;;;;;;;11.93;58.35;97146.28;4238366;27;5594;-69
2023/01/07 06:55:26;;;;;;;;;;;;;;;11.98;57.91;97153.63;4235442;27;5773;-69
2023/01/07 06:57:30;;;;;;;;;;;;;;;11.96;57.82;97145.06;4231443;28;5728;-69
2023/01/07 06:59:32;;;;;;;;;;;;;;;11.94;58.09;97147.91;4219587;28;5609;-70
2023/01/07 07:01:35;;;;;;;;;;;;;;;11.89;57.86;97144.19;4238574;27;5692;-69
2023/01/07 07:03:38;;;;;;;;;;;;;;;11.84;57.68;97141.31;4234675;28;5848;-69
2023/01/07 07:05:41;;;;;;;;;;;;;;;11.79;57.75;97144.53;4231824;28;5637;-69
2023/01/07 07:07:43;;;;;;;;;;;;;;;11.69;57.92;97144.03;4219333;28;5605;-69
2023/01/07 07:09:49;;;;;;;;;;;;;;;11.65;57.83;97145.41;4221034;28;5084;-69
2023/01/07 07:11:52;;;;;;;;;;;;;;;11.62;57.60;97143.13;4233274;28;7655;-69
2023/01/07 07:13:54;;;;;;;;;;;;;;;11.59;57.94;97140.88;4236043;27;5675;-70
2023/01/07 07:15:59;;;;;;;;;;;;;;;11.59;57.55;97141.69;4227903;27;5594;-70
2023/01/07 07:18:02;;;;;;;;;;;;;;;11.56;57.77;97144.72;4235246;28;5705;-70
2023/01/07 07:20:06;;;;;;;;;;;;;;;11.56;57.40;97141.28;4229353;27;5525;-70
2023/01/07 07:22:09;;;;;;;;;;;;;;;11.61;57.71;97144.16;4234278;27;5682;-70
2023/01/07 07:24:12;;;;;;;;;;;;;;;11.63;57.35;97142.94;4229040;28;5594;-70
2023/01/07 07:26:16;;;;;;;;;;;;;;;11.68;57.37;97146.88;4235012;28;5087;-70
2023/01/07 07:28:18;;;;;;;;;;;;;;;11.69;57.11;97149.31;4239479;27;5590;-70
2023/01/07 07:30:21;;;;;;;;;;;;;;;11.73;57.20;97149.75;4229997;28;5598;-70
2023/01/07 07:32:44;;;;;;;;;;;;;;;11.74;56.63;97143.44;4222753;28;5669;-70
2023/01/07 07:34:46;;;;;;;;;;;;;;;11.74;56.88;97140.78;4233955;28;6406;-70
2023/01/07 07:36:49;;;;;;;;;;;;;;;11.75;56.85;97143.25;4234884;28;6310;-69
2023/01/07 07:38:52;;;;;;;;;;;;;;;11.77;56.55;97140.41;4240900;27;5634;-70
2023/01/07 07:40:55;;;;;;;;;;;;;;;11.75;56.43;97145.88;4252909;27;5591;-69
2023/01/07 07:43:00;;;;;;;;;;;;;;;11.73;56.60;97139.97;4239436;27;5722;-70
2023/01/07 07:45:15;;;;;;;;;;;;;;;11.69;56.43;97144.03;4232311;28;5788;-70
2023/01/07 07:47:18;;;;;;;;;;;;;;;11.64;56.56;97139.28;4233717;28;7156;-69
2023/01/07 07:49:21;;;;;;;;;;;;;;;11.65;56.42;97132.16;4234187;28;5598;-69
2023/01/07 07:51:23;;;;;;;;;;;;;;;11.68;56.45;97141.56;4234114;28;5610;-70
2023/01/07 07:53:26;;;;;;;;;;;;;;;11.71;56.32;97131.41;4229667;28;5618;-70
2023/01/07 07:55:29;;;;;;;;;;;;;;;11.73;56.29;97136.50;4220735;28;5711;-69
2023/01/07 07:57:31;;;;;;;;;;;;;;;11.71;56.30;97128.75;4227869;28;5852;-70
2023/01/07 07:59:36;;;;;;;;;;;;;;;11.71;56.24;97127.94;4229801;28;5677;-69
2023/01/07 08:01:38;;;;;;;;;;;;;;;11.72;56.13;97127.75;4233893;28;6290;-70
2023/01/07 08:03:41;;;;;;;;;;;;;;;11.72;56.06;97127.75;4230272;28;6461;-71
2023/01/07 08:05:45;;;;;;;;;;;;;;;11.70;55.94;97134.25;4222047;28;5598;-70
2023/01/07 08:07:47;;;;;;;;;;;;;;;11.73;55.91;97139.16;4234086;28;5692;-70
2023/01/07 08:09:50;;;;;;;;;;;;;;;11.74;55.99;97136.31;4234718;28;5610;-70
2023/01/07 08:11:53;;;;;;;;;;;;;;;11.77;55.72;97135.09;4237751;27;5665;-70
2023/01/07 08:13:55;;;;;;;;;;;;;;;11.74;55.46;97133.66;4226509;28;6311;-70
2023/01/07 08:16:00;;;;;;;;;;;;;;;11.73;55.51;97133.84;4225626;28;5602;-70
2023/01/07 08:18:05;;;;;;;;;;;;;;;11.70;55.95;97134.25;4234959;28;5637;-71
2023/01/07 08:20:09;;;;;;;;;;;;;;;11.72;55.68;97129.56;4226211;28;5688;-71
2023/01/07 08:22:11;;;;;;;;;;;;;;;11.77;55.55;97127.97;4217740;28;5704;-71
2023/01/07 08:24:14;;;;;;;;;;;;;;;11.79;55.66;97127.81;4218503;28;5625;-71
2023/01/07 08:26:17;;;;;;;;;;;;;;;11.79;55.58;97125.16;4218426;28;5700;-68
2023/01/07 08:28:20;;;;;;;;;;;;;;;11.79;55.49;97123.34;4227588;28;5681;-70
2023/01/07 08:30:23;;;;;;;;;;;;;;;11.80;55.36;97124.19;4233474;28;6287;-70
2023/01/07 08:32:27;;;;;;;;;;;;;;;11.83;55.48;97127.25;4227435;28;5681;-70
2023/01/07 08:34:29;;;;;;;;;;;;;;;11.84;55.11;97120.13;4234845;28;5817;-69
2023/01/07 08:36:32;;;;;;;;;;;;;;;11.87;55.10;97135.63;4234552;28;5701;-70
2023/01/07 08:38:35;;;;;;;;;;;;;;;11.89;55.31;97128.28;4229640;28;5703;-70
2023/01/07 08:40:38;;;;;;;;;;;;;;;11.90;55.26;97129.97;4223362;28;5609;-70
2023/01/07 08:42:41;;;;;;;;;;;;;;;11.86;55.14;97132.16;4233937;28;5590;-70
2023/01/07 08:44:44;;;;;;;;;;;;;;;11.82;54.88;97127.44;4224295;28;6291;-71
2023/01/07 08:46:47;;;;;;;;;;;;;;;11.72;54.76;97130.38;4232156;28;5589;-70
2023/01/07 08:48:51;;;;;;;;;;;;;;;11.71;55.13;97133.22;4232587;28;5684;-70
2023/01/07 08:50:54;;;;;;;;;;;;;;;11.79;54.96;97127.81;4233662;28;5702;-68
2023/01/07 08:52:57;;;;;;;;;;;;;;;11.86;55.20;97124.19;4221333;28;6677;-74
2023/01/07 08:55:00;;;;;;;;;;;;;;;11.90;54.59;97124.66;4220601;28;5835;-69
2023/01/07 08:57:03;;;;;;;;;;;;;;;11.92;54.93;97122.63;4227489;27;5835;-73
2023/01/07 08:59:06;;;;;;;;;;;;;;;11.92;54.69;97127.94;4229509;27;5909;-73
2023/01/07 09:01:10;;;;;;;;;;;;;;;11.93;54.44;97124.25;4224058;28;5797;-74
2023/01/07 09:03:13;;;;;;;;;;;;;;;11.94;54.64;97123.25;4224260;28;5867;-75
2023/01/07 09:05:17;;;;;;;;;;;;;;;11.91;54.20;97115.69;4233108;27;5606;-77
2023/01/07 09:07:20;;;;;;;;;;;;;;;11.89;54.39;97123.84;4227969;27;5593;-75
2023/01/07 09:09:23;;;;;;;;;;;;;;;11.89;54.59;97115.03;4228225;27;6295;-73
2023/01/07 09:11:25;;;;;;;;;;;;;;;11.89;54.30;97113.25;4226261;27;5740;-74
2023/01/07 09:13:28;;;;;;;;;;;;;;;11.93;54.61;97118.97;4226451;28;5829;-75
2023/01/07 09:15:31;;;;;;;;;;;;;;;11.96;54.40;97113.28;4228885;27;5784;-75
2023/01/07 09:17:34;;;;;;;;;;;;;;;11.94;54.51;97115.31;4224737;28;5676;-76
2023/01/07 09:19:37;;;;;;;;;;;;;;;11.97;54.04;97114.91;4227027;28;5096;-75
2023/01/07 09:21:41;;;;;;;;;;;;;;;12.01;54.36;97113.53;4230160;28;5744;-75
2023/01/07 09:23:43;;;;;;;;;;;;;;;12.04;54.14;97121.06;4223043;27;5811;-76
2023/01/07 09:25:46;;;;;;;;;;;;;;;12.06;54.13;97116.41;4229320;27;5132;-75
2023/01/07 09:27:49;;;;;;;;;;;;;;;12.05;53.85;97112.13;4229111;28;5789;-74
2023/01/07 09:29:53;;;;;;;;;;;;;;;12.04;54.12;97115.78;4230984;28;5665;-74
2023/01/07 09:31:56;;;;;;;;;;;;;;;11.94;53.92;97110.00;4227828;28;5848;-74
2023/01/07 09:33:59;;;;;;;;;;;;;;;11.88;53.82;97114.22;4221934;27;5684;-75
2023/01/07 09:36:02;;;;;;;;;;;;;;;11.87;54.09;97114.41;4227642;28;5744;-72
2023/01/07 09:38:06;;;;;;;;;;;;;;;11.81;53.74;97117.88;4227690;28;5740;-72
2023/01/07 09:40:19;;;;;;;;;;;;;;;11.82;53.78;97114.19;4225419;28;5617;-73
2023/01/07 09:42:31;;;;;;;;;;;;;;;11.84;54.07;97117.47;4227566;28;6525;-72
2023/01/07 09:44:50;;;;;;;;;;;;;;;11.91;53.68;97111.22;4233770;27;5826;-74
2023/01/07 09:46:54;;;;;;;;;;;;;;;11.85;53.69;97111.97;4231972;28;5606;-74
2023/01/07 09:49:01;;;;;;;;;;;;;;;11.83;53.80;97113.19;4231169;27;5946;-74
2023/01/07 09:51:09;;;;;;;;;;;;;;;11.80;53.61;97102.97;4232949;27;5736;-79
2023/01/07 09:53:18;;;;;;;;;;;;;;;11.81;53.82;97109.91;4234658;28;5657;-75
2023/01/07 09:55:22;;;;;;;;;;;;;;;11.83;53.71;97105.25;4230768;27;5796;-80
2023/01/07 09:57:26;;;;;;;;;;;;;;;11.86;53.83;97102.19;4226161;27;5613;-76
2023/01/07 09:59:29;;;;;;;;;;;;;;;11.91;53.40;97110.41;4230669;27;5601;-75
2023/01/07 10:01:39;;;;;;;;;;;;;;;11.89;53.53;97102.66;4229351;28;5800;-76
2023/01/07 10:03:51;;;;;;;;;;;;;;;11.93;53.71;97090.63;4229011;28;5606;-75
2023/01/07 10:06:01;;;;;;;;;;;;;;;11.97;53.35;97093.72;4227845;28;6446;-66
2023/01/07 10:08:15;;;;;;;;;;;;;;;11.92;52.99;97096.13;4241488;27;5701;-67
2023/01/07 10:10:44;;;;;;;;;;;;;;;11.84;53.32;97083.03;4224777;28;5832;-80
2023/01/07 10:12:54;;;;;;;;;;;;;;;11.84;53.22;97075.91;4234527;27;5594;-76
2023/01/07 10:15:14;;;;;;;;;;;;;;;11.83;53.16;97078.75;4226853;28;5621;-76
2023/01/07 10:17:29;;;;;;;;;;;;;;;11.80;53.17;97079.97;4228358;27;5728;-77
2023/01/07 10:19:42;;;;;;;;;;;;;;;11.88;53.22;97073.66;4233802;27;6680;-77
2023/01/07 10:21:51;;;;;;;;;;;;;;;11.94;53.15;97072.91;4220766;28;5669;-73
2023/01/07 10:24:02;;;;;;;;;;;;;;;12.01;52.63;97067.66;4217183;28;5832;-76
2023/01/07 10:26:17;;;;;;;;;;;;;;;12.00;52.59;97060.69;4242821;27;7227;-75
2023/01/07 10:28:24;;;;;;;;;;;;;;;11.99;52.49;97057.22;4236071;27;5700;-76
2023/01/07 10:30:31;;;;;;;;;;;;;;;11.95;52.82;97056.00;4229502;28;5820;-69
2023/01/07 10:32:35;;;;;;;;;;;;;;;11.99;52.54;97048.47;4233115;27;5923;-64
2023/01/07 10:34:44;;;;;;;;;;;;;;;11.97;52.30;97051.31;4235832;27;5724;-64
2023/01/07 10:36:59;;;;;;;;;;;;;;;12.00;52.47;97050.91;4234797;27;5604;-65
2023/01/07 10:39:15;;;;;;;;;;;;;;;11.99;52.59;97030.72;4234709;27;6045;-63
2023/01/07 10:41:27;;;;;;;;;;;;;;;11.99;52.29;97032.56;4231573;27;5598;-68
2023/01/07 10:43:44;;;;;;;;;;;;;;;12.01;52.65;97033.22;4231829;28;5598;-68
2023/01/07 10:46:01;;;;;;;;;;;;;;;12.06;52.69;97018.34;4227280;27;5626;-68
2023/01/07 10:48:26;;;;;;;;;;;;;;;12.14;52.49;97020.03;4227874;27;5785;-68
2023/01/07 10:50:44;;;;;;;;;;;;;;;12.19;52.23;97020.25;4233144;27;5617;-70
2023/01/07 10:52:58;;;;;;;;;;;;;;;12.21;52.58;97016.38;4232584;27;5724;-69
2023/01/07 10:55:14;;;;;;;;;;;;;;;12.23;52.17;97016.16;4227440;28;5986;-68
2023/01/07 10:57:20;;;;;;;;;;;;;;;12.25;52.26;97000.91;4229482;28;5598;-69
2023/01/07 10:59:24;;;;;;;;;;;;;;;12.26;52.61;97012.31;4230445;28;5856;-68
2023/01/07 11:01:31;;;;;;;;;;;;;;;12.29;52.44;97006.63;4229700;27;5602;-68
2023/01/07 11:03:36;;;;;;;;;;;;;;;12.28;52.33;96989.91;4229691;27;5961;-68
2023/01/07 11:05:39;;;;;;;;;;;;;;;12.32;52.23;97000.91;4229680;28;5586;-69
2023/01/07 11:07:45;;;;;;;;;;;;;;;12.34;52.18;96993.56;4230790;28;5879;-69
2023/01/07 11:09:48;;;;;;;;;;;;;;;12.37;52.06;96987.91;4229563;28;5733;-69
2023/01/07 11:11:53;;;;;;;;;;;;;;;12.38;52.21;96994.81;4231364;28;6260;-68
2023/01/07 11:14:01;;;;;;;;;;;;;;;12.38;52.18;96984.22;4234826;27;5591;-68
2023/01/07 11:16:10;;;;;;;;;;;;;;;12.40;52.23;96987.50;4226847;28;6713;-68
2023/01/07 11:18:19;;;;;;;;;;;;;;;12.37;52.31;96986.06;4229232;28;5807;-68
2023/01/07 11:20:44;;;;;;;;;;;;;;;12.37;52.19;96985.25;4229175;28;5768;-68
2023/01/07 11:22:46;;;;;;;;;;;;;;;12.36;52.53;96983.63;4232908;27;5614;-69
2023/01/07 11:24:49;;;;;;;;;;;;;;;12.38;52.26;96973.63;4230524;28;5744;-68
2023/01/07 11:26:58;;;;;;;;;;;;;;;12.39;52.50;96964.66;4228936;27;5718;-68
2023/01/07 11:29:15;;;;;;;;;;;;;;;12.38;52.17;96957.72;4230607;27;6215;-68
2023/01/07 11:31:19;;;;;;;;;;;;;;;12.37;52.57;96959.53;4228562;28;5673;-68
2023/01/07 11:33:25;;;;;;;;;;;;;;;12.39;52.15;96964.66;4229162;27;5823;-68
2023/01/07 11:35:52;;;;;;;;;;;;;;;12.43;52.51;96961.38;4226327;28;5736;-69
2023/01/07 11:37:55;;;;;;;;;;;;;;;12.46;52.43;96949.59;4230744;28;5617;-69
2023/01/07 11:40:00;;;;;;;;;;;;;;;12.46;52.32;96945.09;4232514;28;5606;-69
2023/01/07 11:44:33;;;;;;;;;;;;;;;12.51;52.09;96945.28;4225706;27;5847;-68
2023/01/07 11:46:36;;;;;;;;;;;;;;;12.50;52.28;96945.50;4228435;27;5919;-68
2023/01/07 11:48:48;;;;;;;;;;;;;;;12.48;52.21;96931.63;4226579;28;5697;-68
2023/01/07 11:50:57;;;;;;;;;;;;;;;12.49;52.37;96930.59;4229545;28;5594;-69
2023/01/07 11:53:03;;;;;;;;;;;;;;;12.49;52.28;96930.59;4230383;27;5685;-68
2023/01/07 11:55:18;;;;;;;;;;;;;;;12.50;52.46;96925.09;4225954;28;5677;-69
2023/01/07 11:57:24;;;;;;;;;;;;;;;12.50;52.48;96925.09;4232419;27;5586;-69
2023/01/07 11:59:29;;;;;;;;;;;;;;;12.50;52.20;96916.34;4231862;27;5712;-69
2023/01/07 12:01:41;;;;;;;;;;;;;;;12.52;52.13;96917.75;4228797;28;5828;-69
2023/01/07 12:04:11;;;;;;;;;;;;;;;12.56;52.14;96906.72;4230739;27;5747;-69
2023/01/07 12:06:19;;;;;;;;;;;;;;;12.53;52.21;96907.97;4231539;27;6390;-69
2023/01/07 12:08:25;;;;;;;;;;;;;;;12.47;51.87;96895.53;4218333;27;5677;-69
2023/01/07 12:10:32;;;;;;;;;;;;;;;12.40;52.01;96892.03;4228714;27;5598;-69
2023/01/07 12:12:38;;;;;;;;;;;;;;;12.39;51.96;96885.09;4230626;28;5591;-68
2023/01/07 12:14:47;;;;;;;;;;;;;;;12.35;52.26;96875.94;4228240;28;5846;-68
2023/01/07 12:16:52;;;;;;;;;;;;;;;12.33;52.21;96876.13;4226933;27;6303;-68
2023/01/07 12:19:11;;;;;;;;;;;;;;;12.37;52.36;96871.25;4227492;27;5623;-68
2023/01/07 12:21:35;;;;;;;;;;;;;;;12.42;52.23;96869.59;4224006;27;5820;-70
2023/01/07 12:23:46;;;;;;;;;;;;;;;12.48;52.39;96860.03;4224630;27;5848;-70
2023/01/07 12:26:00;;;;;;;;;;;;;;;12.53;52.00;96866.34;4231448;27;5610;-68
2023/01/07 12:28:11;;;;;;;;;;;;;;;12.59;52.13;96863.91;4225353;27;5685;-64
2023/01/07 12:30:29;;;;;;;;;;;;;;;12.61;52.03;96861.88;4227847;27;5658;-64
2023/01/07 12:32:44;;;;;;;;;;;;;;;12.62;52.13;96859.00;4229387;27;5757;-77
2023/01/07 12:35:01;;;;;;;;;;;;;;;12.65;52.06;96853.28;4228214;27;5833;-79
2023/01/07 12:37:30;;;;;;;;;;;;;;;12.70;52.16;96850.03;4228661;27;5803;-76
2023/01/07 12:39:35;;;;;;;;;;;;;;;12.73;51.82;96853.09;4230481;27;5771;-76
2023/01/07 12:41:43;;;;;;;;;;;;;;;12.75;52.04;96851.03;4225211;27;5590;-76